Time;durP1;ratioP1;P1;durP2;ratioP2;P2;SDS_P1;SDS_P2;PMS_P1;PMS_P2;Temp;Humidity;BMP_temperature;BMP_pressure;BME280_temperature;BME280_humidity;BME280_pressure;Samples;Min_cycle;Max_cycle;Signal;HPM_P1;HPM_P2
2023/02/21 02:14:50;;;;;;;32.88;17.30;;;6.30;54.50;;;;;;5016002;28;20437;-90
2023/02/21 02:17:44;;;;;;;35.42;16.77;;;6.30;54.40;;;;;;5000648;28;20097;-92
2023/02/21 02:20:28;;;;;;;31.77;17.15;;;6.30;54.40;;;;;;5015750;28;20441;-91
2023/02/21 02:23:14;;;;;;;31.85;16.67;;;6.30;54.40;;;;;;4999619;28;20077;-87
2023/02/21 02:26:05;;;;;;;32.78;16.38;;;6.30;54.40;;;;;;5012253;28;20044;-88
2023/02/21 02:29:07;;;;;;;33.50;17.23;;;6.30;54.40;;;;;;5013715;28;20048;-90
2023/02/21 02:32:14;;;;;;;30.40;16.80;;;6.30;54.30;;;;;;5013608;28;20061;-90
2023/02/21 02:34:49;;;;;;;28.75;15.82;;;6.30;54.30;;;;;;4928903;28;20568;-90
2023/02/21 02:37:33;;;;;;;28.50;16.23;;;6.30;54.20;;;;;;4947346;28;20058;-92
2023/02/21 02:40:05;;;;;;;28.63;15.73;;;6.20;54.10;;;;;;4959359;28;20153;-87
2023/02/21 02:42:38;;;;;;;28.95;15.52;;;6.30;54.20;;;;;;4961083;28;20216;-90
2023/02/21 02:45:13;;;;;;;37.75;16.45;;;6.20;54.20;;;;;;4945046;28;20067;-86
2023/02/21 02:47:42;;;;;;;29.70;16.90;;;6.30;54.20;;;;;;4952648;28;20039;-88
2023/02/21 02:50:09;;;;;;;29.15;15.00;;;6.20;53.90;;;;;;4957289;28;20044;-88
2023/02/21 02:52:37;;;;;;;27.40;15.75;;;6.20;54.10;;;;;;4949053;28;20042;-89
2023/02/21 02:55:22;;;;;;;28.60;15.73;;;6.20;54.00;;;;;;4959778;28;20059;-86
2023/02/21 02:57:50;;;;;;;27.83;15.00;;;6.20;54.00;;;;;;4975207;28;20046;-87
2023/02/21 03:00:18;;;;;;;28.77;15.18;;;6.20;53.90;;;;;;4942339;28;20034;-89
2023/02/21 03:03:33;;;;;;;29.77;15.48;;;6.20;53.90;;;;;;4959472;28;20973;-87
2023/02/21 03:06:35;;;;;;;24.90;14.43;;;6.20;53.70;;;;;;4941193;28;20074;-89
2023/02/21 03:09:14;;;;;;;26.52;14.65;;;6.20;53.70;;;;;;4972511;28;20105;-89
2023/02/21 03:11:59;;;;;;;27.48;15.43;;;6.10;53.70;;;;;;5011181;28;20045;-88
2023/02/21 03:14:33;;;;;;;24.90;15.23;;;6.20;53.70;;;;;;4994984;28;20077;-86
2023/02/21 03:17:08;;;;;;;27.10;14.80;;;6.10;53.80;;;;;;5013107;28;20064;-87
2023/02/21 03:19:40;;;;;;;26.85;14.85;;;6.10;53.80;;;;;;4999697;28;20034;-90
2023/02/21 03:22:17;;;;;;;27.17;14.80;;;6.10;53.80;;;;;;5012863;28;20251;-88
2023/02/21 03:24:47;;;;;;;28.98;15.50;;;6.10;53.70;;;;;;5013363;28;20078;-85
2023/02/21 03:27:14;;;;;;;26.30;14.65;;;6.10;53.60;;;;;;5012917;28;20065;-89
2023/02/21 03:30:01;;;;;;;28.80;15.73;;;6.10;53.70;;;;;;4993874;28;20034;-80
2023/02/21 03:32:36;;;;;;;26.48;14.57;;;6.10;53.60;;;;;;5009572;28;20034;-81
2023/02/21 03:35:04;;;;;;;27.08;15.13;;;6.10;53.60;;;;;;5011133;28;20497;-81
2023/02/21 03:37:40;;;;;;;25.65;15.13;;;6.10;53.50;;;;;;4974050;28;20026;-82
2023/02/21 03:40:15;;;;;;;28.85;15.18;;;6.10;53.40;;;;;;4991707;28;20603;-81
2023/02/21 03:42:45;;;;;;;24.20;14.23;;;6.10;53.40;;;;;;5010701;28;20078;-82
2023/02/21 03:45:13;;;;;;;28.77;15.80;;;6.10;53.40;;;;;;4994576;28;20117;-80
2023/02/21 03:47:41;;;;;;;26.83;14.45;;;6.10;53.30;;;;;;5010460;28;20030;-80
2023/02/21 03:50:07;;;;;;;30.05;14.85;;;6.00;53.20;;;;;;5010138;28;20049;-78
2023/02/21 03:52:36;;;;;;;24.90;14.27;;;6.10;53.20;;;;;;5011317;28;20078;-78
2023/02/21 03:55:02;;;;;;;23.83;14.63;;;6.00;53.00;;;;;;4994175;28;20520;-80
2023/02/21 03:57:29;;;;;;;27.25;15.40;;;6.00;52.90;;;;;;5010098;28;20045;-79
2023/02/21 03:59:56;;;;;;;27.65;15.32;;;6.00;52.90;;;;;;4978379;28;20073;-79
2023/02/21 04:02:22;;;;;;;26.35;14.95;;;6.00;53.00;;;;;;4994364;28;20120;-79
2023/02/21 04:04:48;;;;;;;24.25;14.25;;;6.00;52.90;;;;;;4995389;28;20042;-79
2023/02/21 04:07:19;;;;;;;29.80;16.05;;;6.00;52.80;;;;;;5010020;28;20161;-79
2023/02/21 04:09:47;;;;;;;24.27;13.77;;;6.00;52.90;;;;;;5009818;28;20185;-79
2023/02/21 04:12:18;;;;;;;27.20;14.07;;;6.00;52.90;;;;;;5010096;28;20077;-79
2023/02/21 04:14:44;;;;;;;27.95;14.88;;;6.00;52.80;;;;;;5002319;28;20034;-79
2023/02/21 04:17:10;;;;;;;28.33;14.70;;;5.90;52.80;;;;;;4978421;28;20038;-79
2023/02/21 04:19:38;;;;;;;24.20;14.10;;;6.00;52.80;;;;;;4992436;28;20087;-79
2023/02/21 04:22:05;;;;;;;28.10;14.30;;;5.90;52.70;;;;;;5010011;28;20185;-78
2023/02/21 04:24:31;;;;;;;23.33;13.93;;;5.90;52.60;;;;;;5010854;28;20038;-76
2023/02/21 04:26:57;;;;;;;26.25;14.60;;;5.90;52.50;;;;;;5010189;28;20086;-82
2023/02/21 04:29:24;;;;;;;24.63;13.55;;;5.90;52.40;;;;;;5010300;28;20034;-79
2023/02/21 04:31:51;;;;;;;22.65;13.90;;;5.90;52.30;;;;;;5009701;28;20033;-83
2023/02/21 04:34:17;;;;;;;25.45;13.90;;;5.90;52.30;;;;;;4994531;28;20030;-80
2023/02/21 04:36:44;;;;;;;25.27;14.65;;;5.90;52.30;;;;;;4993893;28;20065;-78
2023/02/21 04:39:10;;;;;;;27.63;14.45;;;5.90;52.20;;;;;;5011238;28;20593;-77
2023/02/21 04:41:38;;;;;;;25.30;14.65;;;5.90;52.10;;;;;;5007308;28;20035;-77
2023/02/21 04:44:05;;;;;;;24.60;14.15;;;5.90;52.10;;;;;;4993915;28;20093;-77
2023/02/21 04:46:32;;;;;;;27.95;15.43;;;5.80;52.00;;;;;;4993824;28;20037;-77
2023/02/21 04:48:58;;;;;;;27.38;14.70;;;5.90;52.10;;;;;;5010799;28;20035;-79
2023/02/21 04:51:25;;;;;;;28.20;15.70;;;5.80;52.10;;;;;;4993919;28;20050;-78
2023/02/21 04:53:52;;;;;;;26.55;14.75;;;5.80;52.10;;;;;;4996216;28;20033;-76
2023/02/21 04:56:21;;;;;;;26.92;14.48;;;5.80;52.10;;;;;;4995067;28;20042;-76
2023/02/21 04:58:47;;;;;;;25.85;14.43;;;5.80;52.10;;;;;;4993717;28;20488;-77
2023/02/21 05:01:14;;;;;;;24.02;13.68;;;5.80;52.10;;;;;;4995504;28;20400;-78
2023/02/21 05:03:40;;;;;;;23.65;13.77;;;5.80;52.10;;;;;;4995208;28;20044;-78
2023/02/21 05:06:06;;;;;;;26.80;14.35;;;5.80;52.20;;;;;;4994465;28;20034;-76
2023/02/21 05:08:32;;;;;;;25.88;15.27;;;5.80;52.10;;;;;;4994081;28;20541;-76
2023/02/21 05:10:58;;;;;;;27.42;15.30;;;5.70;52.10;;;;;;4994255;28;20038;-77
2023/02/21 05:13:24;;;;;;;26.02;14.90;;;5.80;52.30;;;;;;4995853;28;20149;-76
2023/02/21 05:15:50;;;;;;;30.20;15.10;;;5.80;52.20;;;;;;4994802;28;20035;-76
2023/02/21 05:18:21;;;;;;;26.50;14.85;;;5.80;52.10;;;;;;4994184;28;20058;-77
2023/02/21 05:20:49;;;;;;;28.65;15.68;;;5.70;52.10;;;;;;5011487;28;20038;-76
2023/02/21 05:23:17;;;;;;;28.63;15.88;;;5.70;52.00;;;;;;5014307;28;20520;-77
2023/02/21 05:25:44;;;;;;;31.15;16.02;;;5.80;52.00;;;;;;5013652;28;20299;-76
2023/02/21 05:28:10;;;;;;;32.33;17.27;;;5.70;52.00;;;;;;4998657;28;20036;-76
2023/02/21 05:30:36;;;;;;;26.80;15.55;;;5.80;52.00;;;;;;5011930;28;20046;-77
2023/02/21 05:33:02;;;;;;;30.65;16.27;;;5.80;52.00;;;;;;4998798;28;20067;-76
2023/02/21 05:35:28;;;;;;;28.98;16.30;;;5.80;51.90;;;;;;4997233;28;20044;-76
2023/02/21 05:37:54;;;;;;;26.10;15.73;;;5.80;51.70;;;;;;4997503;28;20073;-76
2023/02/21 05:40:21;;;;;;;24.50;15.50;;;5.80;51.70;;;;;;4997875;28;20061;-76
2023/02/21 05:42:47;;;;;;;27.75;15.93;;;5.80;51.70;;;;;;4997853;28;20038;-77
2023/02/21 05:45:13;;;;;;;27.95;16.08;;;5.80;51.60;;;;;;4999200;28;20045;-77
2023/02/21 05:47:38;;;;;;;28.13;15.82;;;5.80;51.50;;;;;;5012423;28;20034;-77
2023/02/21 05:50:05;;;;;;;26.85;15.30;;;5.90;51.40;;;;;;4997547;28;20056;-78
2023/02/21 05:52:31;;;;;;;27.95;16.20;;;5.90;51.30;;;;;;4998177;28;20030;-77
2023/02/21 05:54:57;;;;;;;28.42;16.38;;;5.90;51.00;;;;;;5011872;28;20042;-77
2023/02/21 05:57:23;;;;;;;27.98;16.30;;;5.90;51.00;;;;;;4998665;28;20038;-78
2023/02/21 05:59:49;;;;;;;28.77;16.25;;;5.90;50.90;;;;;;4996122;28;20095;-77
2023/02/21 06:02:15;;;;;;;29.05;16.52;;;6.00;50.90;;;;;;5012517;28;20117;-77
2023/02/21 06:04:41;;;;;;;29.60;16.42;;;6.00;50.90;;;;;;5013472;28;20092;-78
2023/02/21 06:07:07;;;;;;;27.10;15.70;;;6.10;50.90;;;;;;5012621;28;20034;-79
2023/02/21 06:09:33;;;;;;;33.28;15.30;;;6.10;50.80;;;;;;4997759;28;20034;-78
2023/02/21 06:11:59;;;;;;;26.15;15.00;;;6.20;50.80;;;;;;4997445;28;20057;-81
2023/02/21 06:14:25;;;;;;;32.25;15.88;;;6.20;50.90;;;;;;4995206;28;20038;-82
2023/02/21 06:16:51;;;;;;;26.75;15.43;;;6.30;50.90;;;;;;5012855;28;20069;-81
2023/02/21 06:19:18;;;;;;;26.08;14.40;;;6.40;51.00;;;;;;4985191;28;20121;-81
2023/02/21 06:21:44;;;;;;;29.65;15.80;;;6.40;51.00;;;;;;4995969;28;20038;-80
2023/02/21 06:24:11;;;;;;;29.08;15.70;;;6.50;51.00;;;;;;4995641;28;20038;-80
2023/02/21 06:26:39;;;;;;;24.58;14.40;;;6.60;51.00;;;;;;4995549;28;20062;-81
2023/02/21 06:29:06;;;;;;;26.13;14.43;;;6.70;51.00;;;;;;4996060;28;20088;-80
2023/02/21 06:31:32;;;;;;;23.48;14.35;;;6.70;50.90;;;;;;5011976;28;20580;-80
2023/02/21 06:33:58;;;;;;;25.88;14.77;;;6.80;50.90;;;;;;4997043;28;20121;-80
2023/02/21 06:36:26;;;;;;;25.48;14.68;;;6.90;50.90;;;;;;4997329;28;20496;-81
2023/02/21 06:38:54;;;;;;;24.10;14.23;;;7.00;50.90;;;;;;4997615;28;20513;-79
2023/02/21 06:41:26;;;;;;;25.73;14.95;;;7.10;50.80;;;;;;4996603;28;20038;-81
2023/02/21 06:43:53;;;;;;;25.58;14.52;;;7.20;50.60;;;;;;4995741;28;20560;-83
2023/02/21 06:46:22;;;;;;;24.35;14.15;;;7.20;50.40;;;;;;5012984;28;20034;-82
2023/02/21 06:48:48;;;;;;;23.90;13.93;;;7.30;50.40;;;;;;4995794;28;20042;-81
2023/02/21 06:51:14;;;;;;;23.77;14.10;;;7.40;50.40;;;;;;5000385;28;20089;-81
2023/02/21 06:53:41;;;;;;;24.02;13.50;;;7.50;50.10;;;;;;4996886;28;20599;-84
2023/02/21 06:56:08;;;;;;;22.80;13.82;;;7.60;50.20;;;;;;4996617;28;20038;-84
2023/02/21 06:58:34;;;;;;;25.58;14.80;;;7.60;50.30;;;;;;4996318;28;20034;-87
2023/02/21 07:01:00;;;;;;;22.80;13.20;;;7.70;50.10;;;;;;4977847;28;20049;-82
2023/02/21 07:03:26;;;;;;;21.33;12.75;;;7.80;50.30;;;;;;4994794;28;20084;-80
2023/02/21 07:05:52;;;;;;;22.98;13.20;;;7.90;50.50;;;;;;5011679;28;20109;-84
2023/02/21 07:08:18;;;;;;;21.63;12.80;;;8.00;50.70;;;;;;5011601;28;20497;-80
2023/02/21 07:10:44;;;;;;;20.60;13.27;;;8.10;50.50;;;;;;4996311;28;20038;-81
2023/02/21 07:13:10;;;;;;;21.70;12.77;;;8.10;50.30;;;;;;4996768;28;20058;-80
2023/02/21 07:15:36;;;;;;;21.20;12.68;;;8.20;50.20;;;;;;5010681;28;20056;-80
2023/02/21 07:18:02;;;;;;;22.63;13.48;;;8.30;50.10;;;;;;5010744;28;20041;-78
2023/02/21 07:20:28;;;;;;;20.98;13.77;;;8.30;49.90;;;;;;5010753;28;20053;-80
2023/02/21 07:22:54;;;;;;;23.30;12.77;;;8.40;50.10;;;;;;4996480;28;20034;-80
2023/02/21 07:25:22;;;;;;;22.75;12.88;;;8.50;50.10;;;;;;4994581;28;20030;-79
2023/02/21 07:27:48;;;;;;;21.83;11.70;;;8.60;50.30;;;;;;4995933;28;20049;-78
2023/02/21 07:30:16;;;;;;;22.38;11.88;;;8.60;50.80;;;;;;5011459;28;20133;-78
2023/02/21 07:32:42;;;;;;;35.00;17.70;;;8.60;50.20;;;;;;4996498;28;20037;-79
2023/02/21 07:35:08;;;;;;;30.73;17.73;;;8.30;38.20;;;;;;4995340;28;20038;-79
2023/02/21 07:37:34;;;;;;;28.88;16.88;;;8.00;36.60;;;;;;4998313;28;20037;-79
2023/02/21 07:40:00;;;;;;;30.67;17.30;;;7.60;35.80;;;;;;5009116;28;20050;-80
2023/02/21 07:42:26;;;;;;;29.92;16.80;;;7.20;35.10;;;;;;5003119;28;20049;-80
2023/02/21 07:44:56;;;;;;;25.30;15.13;;;6.80;35.30;;;;;;5004662;28;20042;-79
2023/02/21 07:47:26;;;;;;;28.45;16.67;;;6.40;35.20;;;;;;5013797;28;20043;-81
2023/02/21 07:49:55;;;;;;;29.50;16.95;;;6.10;35.50;;;;;;4992099;28;20111;-80
2023/02/21 07:52:22;;;;;;;26.77;15.15;;;5.80;35.60;;;;;;4990842;28;20073;-79
2023/02/21 07:54:48;;;;;;;26.67;15.68;;;5.60;36.50;;;;;;5015028;28;20903;-79
2023/02/21 07:57:18;;;;;;;26.92;15.32;;;5.40;36.60;;;;;;5003370;28;20050;-80
2023/02/21 07:59:44;;;;;;;26.60;14.77;;;5.20;36.50;;;;;;5003494;28;20041;-79
2023/02/21 08:02:13;;;;;;;28.73;15.82;;;5.00;36.60;;;;;;5007760;28;20398;-79
2023/02/21 08:04:39;;;;;;;30.17;16.17;;;4.70;36.50;;;;;;5003034;28;20029;-80
2023/02/21 08:07:07;;;;;;;29.70;16.33;;;4.40;36.20;;;;;;5020411;28;20048;-80
2023/02/21 08:09:33;;;;;;;27.58;15.40;;;4.10;36.90;;;;;;5003230;28;20041;-79
2023/02/21 08:11:59;;;;;;;27.75;15.65;;;3.90;37.40;;;;;;5010521;28;20551;-80
2023/02/21 08:14:26;;;;;;;30.23;15.75;;;3.80;37.70;;;;;;4998378;28;20037;-80
2023/02/21 08:16:52;;;;;;;25.55;14.90;;;3.60;38.10;;;;;;5001711;28;20369;-79
2023/02/21 08:19:18;;;;;;;27.40;14.73;;;3.50;38.80;;;;;;5015407;28;20030;-79
2023/02/21 08:21:46;;;;;;;26.75;13.82;;;3.30;37.80;;;;;;4995235;28;20101;-78
2023/02/21 08:24:13;;;;;;;21.95;12.50;;;3.20;40.40;;;;;;5010565;28;20120;-76
2023/02/21 08:26:40;;;;;;;22.00;11.45;;;3.40;43.90;;;;;;4992660;28;20037;-78
2023/02/21 08:29:09;;;;;;;18.83;10.05;;;3.50;45.10;;;;;;4993218;28;20056;-77
2023/02/21 08:31:37;;;;;;;19.13;10.88;;;3.80;45.90;;;;;;4996695;28;20107;-77
2023/02/21 08:34:04;;;;;;;20.33;11.57;;;4.00;46.10;;;;;;4993056;28;20034;-78
2023/02/21 08:36:35;;;;;;;19.33;10.27;;;4.20;46.50;;;;;;4980736;28;20104;-76
2023/02/21 08:39:01;;;;;;;20.25;11.27;;;4.40;46.80;;;;;;5009893;28;20406;-75
2023/02/21 08:41:39;;;;;;;19.90;10.63;;;4.60;46.80;;;;;;4992932;28;20038;-74
2023/02/21 08:44:06;;;;;;;20.95;10.73;;;4.70;46.90;;;;;;4995318;28;20042;-76
2023/02/21 08:46:32;;;;;;;17.48;9.88;;;4.90;47.80;;;;;;5012504;28;20607;-77
2023/02/21 08:48:58;;;;;;;22.65;11.07;;;5.10;48.40;;;;;;4994470;28;20042;-76
2023/02/21 08:51:29;;;;;;;19.55;11.25;;;5.30;48.80;;;;;;4994454;28;20527;-78
2023/02/21 08:53:55;;;;;;;20.15;11.55;;;5.40;48.90;;;;;;5010134;28;20038;-77
2023/02/21 08:56:22;;;;;;;18.02;10.85;;;5.50;48.90;;;;;;4996924;28;20034;-78
2023/02/21 08:58:48;;;;;;;21.88;11.18;;;5.60;48.70;;;;;;4998816;28;20485;-79
2023/02/21 09:01:14;;;;;;;18.40;10.82;;;5.80;48.50;;;;;;5013621;28;20030;-78
2023/02/21 09:03:40;;;;;;;19.60;11.13;;;5.90;48.20;;;;;;4997037;28;20031;-78
2023/02/21 09:06:07;;;;;;;19.80;11.45;;;6.00;48.10;;;;;;4998714;28;20056;-78
2023/02/21 09:08:35;;;;;;;19.83;11.45;;;6.10;47.90;;;;;;4999308;28;20034;-78
2023/02/21 09:11:02;;;;;;;20.08;12.40;;;6.20;47.80;;;;;;4998019;28;20037;-79
2023/02/21 09:13:29;;;;;;;20.88;11.55;;;6.30;47.70;;;;;;4998213;28;20058;-78
2023/02/21 09:15:55;;;;;;;18.88;11.57;;;6.40;47.70;;;;;;5014010;28;20042;-77
2023/02/21 09:18:22;;;;;;;18.88;11.40;;;6.50;47.70;;;;;;4997485;28;20031;-78
2023/02/21 09:20:56;;;;;;;19.80;11.93;;;6.50;47.50;;;;;;4997551;28;20074;-78
2023/02/21 09:23:27;;;;;;;19.63;11.50;;;6.60;47.50;;;;;;4997152;28;20038;-78
2023/02/21 09:25:53;;;;;;;19.02;11.32;;;6.70;47.40;;;;;;4999794;28;20030;-79
2023/02/21 09:28:20;;;;;;;19.42;11.55;;;6.70;47.30;;;;;;5013084;28;20022;-77
2023/02/21 09:30:47;;;;;;;17.75;11.18;;;6.80;47.20;;;;;;4996015;28;20528;-78
2023/02/21 09:33:14;;;;;;;20.60;11.52;;;6.80;47.10;;;;;;4985951;28;20581;-78
2023/02/21 09:35:40;;;;;;;20.17;11.45;;;6.90;47.00;;;;;;4980259;28;20030;-79
2023/02/21 09:38:07;;;;;;;19.15;11.35;;;7.00;47.00;;;;;;5001517;28;20034;-77
2023/02/21 09:41:09;;;;;;;20.42;11.25;;;7.00;46.90;;;;;;4997210;28;20038;-79
2023/02/21 09:43:47;;;;;;;20.98;12.25;;;7.00;46.90;;;;;;4960618;28;20480;-77
2023/02/21 09:46:22;;;;;;;20.10;11.90;;;7.10;46.90;;;;;;4998403;28;20587;-78
2023/02/21 09:48:48;;;;;;;19.77;11.50;;;7.10;46.80;;;;;;5012539;28;20583;-78
2023/02/21 09:51:15;;;;;;;18.80;11.50;;;7.10;46.80;;;;;;4998512;28;20572;-79
2023/02/21 09:53:45;;;;;;;18.40;11.77;;;7.10;46.80;;;;;;5013361;28;20558;-78
2023/02/21 09:56:30;;;;;;;18.27;11.13;;;7.20;46.90;;;;;;4997246;28;20034;-79
2023/02/21 09:58:57;;;;;;;17.65;10.52;;;7.20;46.90;;;;;;4998029;28;20481;-78
2023/02/21 10:01:52;;;;;;;18.00;11.48;;;7.20;47.60;;;;;;4998786;28;20033;-78
2023/02/21 10:04:29;;;;;;;19.52;11.25;;;7.20;47.00;;;;;;4996319;28;20042;-78
2023/02/21 10:07:17;;;;;;;20.40;11.68;;;7.30;47.10;;;;;;5011893;28;20026;-78
2023/02/21 10:09:48;;;;;;;19.33;11.35;;;7.30;47.10;;;;;;4995804;28;20034;-78
2023/02/21 10:12:32;;;;;;;22.17;11.32;;;7.30;47.00;;;;;;5012962;28;20057;-78
2023/02/21 10:15:19;;;;;;;17.80;10.73;;;7.30;47.00;;;;;;4996260;28;20046;-78
2023/02/21 10:17:51;;;;;;;15.93;10.07;;;7.30;46.80;;;;;;4996266;28;20430;-77
2023/02/21 10:20:38;;;;;;;17.40;10.88;;;7.30;46.60;;;;;;5012383;28;20026;-78
2023/02/21 10:23:15;;;;;;;15.52;10.00;;;7.30;46.60;;;;;;4996771;28;20489;-77
2023/02/21 10:25:44;;;;;;;16.20;9.52;;;7.30;46.60;;;;;;4998537;28;20041;-79
2023/02/21 10:28:18;;;;;;;19.38;10.48;;;7.30;46.50;;;;;;5012315;28;20046;-79
2023/02/21 10:30:45;;;;;;;18.38;11.52;;;7.30;46.50;;;;;;4997099;28;20041;-81
2023/02/21 10:33:11;;;;;;;19.08;11.25;;;7.30;46.50;;;;;;4996143;28;20034;-80
2023/02/21 10:35:38;;;;;;;17.98;11.13;;;7.30;46.60;;;;;;5011263;28;20579;-81
2023/02/21 10:38:10;;;;;;;17.42;10.95;;;7.30;46.70;;;;;;4997610;28;20413;-81
2023/02/21 10:40:50;;;;;;;22.13;11.73;;;7.30;46.80;;;;;;4996728;28;20030;-83
2023/02/21 10:43:22;;;;;;;17.90;11.07;;;7.30;46.80;;;;;;4996436;28;20050;-85
2023/02/21 10:45:56;;;;;;;16.90;10.30;;;7.30;46.80;;;;;;5011702;28;20176;-86
2023/02/21 10:48:27;;;;;;;18.23;11.90;;;7.30;46.80;;;;;;4995766;28;20081;-85
2023/02/21 10:50:56;;;;;;;17.55;11.18;;;7.40;46.80;;;;;;4987382;28;20041;-84
2023/02/21 10:53:34;;;;;;;18.60;10.82;;;7.40;46.80;;;;;;5012648;28;20176;-84
2023/02/21 10:56:17;;;;;;;17.73;10.65;;;7.40;46.80;;;;;;4983535;28;20042;-82
2023/02/21 10:58:54;;;;;;;17.80;11.45;;;7.30;46.80;;;;;;5011953;28;20363;-81
2023/02/21 11:01:29;;;;;;;18.33;10.30;;;7.40;46.80;;;;;;5013447;28;20121;-81
2023/02/21 11:04:28;;;;;;;20.10;11.15;;;7.30;46.70;;;;;;5011656;28;20382;-81
2023/02/21 11:07:00;;;;;;;18.73;11.50;;;7.40;46.80;;;;;;4991417;28;20537;-80
2023/02/21 11:09:26;;;;;;;19.35;11.32;;;7.40;46.80;;;;;;5011322;28;20586;-79
2023/02/21 11:12:09;;;;;;;17.80;10.15;;;7.40;46.70;;;;;;4995938;28;20133;-79
2023/02/21 11:14:35;;;;;;;19.60;11.55;;;7.40;46.70;;;;;;4995993;28;20432;-80
2023/02/21 11:17:06;;;;;;;17.20;10.93;;;7.30;46.70;;;;;;4996467;28;20030;-80
2023/02/21 11:19:53;;;;;;;18.73;10.70;;;7.30;46.60;;;;;;4995544;28;20044;-80
2023/02/21 11:22:23;;;;;;;16.67;9.90;;;7.30;46.60;;;;;;4995632;28;20074;-80
2023/02/21 11:25:01;;;;;;;17.20;9.88;;;7.30;46.60;;;;;;4995633;28;20583;-79
2023/02/21 11:27:31;;;;;;;15.98;10.38;;;7.30;46.70;;;;;;5010788;28;20111;-81
2023/02/21 11:30:01;;;;;;;18.02;10.50;;;7.30;46.50;;;;;;5004298;28;20030;-82
2023/02/21 11:32:32;;;;;;;16.58;11.18;;;7.30;46.50;;;;;;5010006;28;20525;-79
2023/02/21 11:35:24;;;;;;;19.05;10.77;;;7.30;46.60;;;;;;4996968;28;20033;-80
2023/02/21 11:37:56;;;;;;;18.05;10.38;;;7.30;46.70;;;;;;4973307;28;20042;-79
2023/02/21 11:40:50;;;;;;;17.15;10.23;;;7.30;46.80;;;;;;4940791;28;20042;-79
2023/02/21 11:43:31;;;;;;;16.23;9.98;;;7.30;46.80;;;;;;4957472;28;20030;-80
2023/02/21 11:46:32;;;;;;;16.88;11.00;;;7.30;46.90;;;;;;4972481;28;20413;-79
2023/02/21 11:49:11;;;;;;;17.30;10.68;;;7.30;47.10;;;;;;4958516;28;20711;-81
2023/02/21 11:51:50;;;;;;;18.30;10.40;;;7.30;47.20;;;;;;4967962;28;20045;-80
2023/02/21 11:54:17;;;;;;;16.05;10.00;;;7.30;47.20;;;;;;4957110;28;20418;-80
2023/02/21 11:56:55;;;;;;;18.95;10.65;;;7.30;47.20;;;;;;4957674;28;20038;-79
2023/02/21 11:59:45;;;;;;;18.83;11.13;;;7.30;47.10;;;;;;4973308;28;20073;-80
2023/02/21 12:02:35;;;;;;;17.67;10.75;;;7.30;47.20;;;;;;4973062;28;20038;-81
2023/02/21 12:05:01;;;;;;;18.27;11.32;;;7.30;47.20;;;;;;4962157;28;20543;-80
2023/02/21 12:07:48;;;;;;;18.25;10.45;;;7.20;47.20;;;;;;4974406;28;20170;-82
2023/02/21 12:10:33;;;;;;;19.08;10.65;;;7.20;47.20;;;;;;4957425;28;20557;-81
2023/02/21 12:13:07;;;;;;;18.23;9.95;;;7.20;47.20;;;;;;4943923;28;20149;-80
2023/02/21 12:16:00;;;;;;;17.30;9.98;;;7.30;47.80;;;;;;4991448;28;20126;-80
2023/02/21 12:18:27;;;;;;;18.52;10.45;;;7.20;47.20;;;;;;4995939;28;20038;-80
2023/02/21 12:21:01;;;;;;;20.95;10.93;;;7.20;47.10;;;;;;4995440;28;20469;-80
2023/02/21 12:23:46;;;;;;;20.00;10.60;;;7.20;47.10;;;;;;4994257;28;20497;-80
2023/02/21 12:26:15;;;;;;;17.08;9.32;;;7.20;47.10;;;;;;4994522;28;20045;-81
2023/02/21 12:29:08;;;;;;;15.95;9.30;;;7.20;47.00;;;;;;5009410;28;20033;-81
2023/02/21 12:31:51;;;;;;;17.98;10.07;;;7.20;47.00;;;;;;4996074;28;20046;-80
2023/02/21 12:34:51;;;;;;;17.10;10.73;;;7.20;46.90;;;;;;4995845;28;20501;-80
2023/02/21 12:37:40;;;;;;;19.48;9.90;;;7.20;46.80;;;;;;4983354;28;20042;-89
2023/02/21 12:40:27;;;;;;;18.80;10.68;;;7.20;46.60;;;;;;4993933;28;20039;-87
2023/02/21 12:43:23;;;;;;;16.75;10.07;;;7.20;46.60;;;;;;5011264;28;20039;-89
2023/02/21 12:46:33;;;;;;;17.80;9.52;;;7.10;46.50;;;;;;4997008;28;20042;-87
2023/02/21 12:49:15;;;;;;;16.77;10.25;;;7.10;46.60;;;;;;4946254;28;20433;-87
2023/02/21 12:51:50;;;;;;;18.95;10.35;;;7.10;46.60;;;;;;4970766;28;20068;-88
2023/02/21 12:54:59;;;;;;;20.35;10.40;;;7.10;46.70;;;;;;4957573;28;20073;-83
2023/02/21 12:57:53;;;;;;;16.05;9.80;;;7.10;46.70;;;;;;4949341;28;20054;-84
2023/02/21 13:00:43;;;;;;;16.95;9.82;;;7.10;46.80;;;;;;4957407;28;20498;-83
2023/02/21 13:03:39;;;;;;;18.00;10.50;;;7.10;46.70;;;;;;4941545;28;20042;-82
2023/02/21 13:06:31;;;;;;;17.40;10.13;;;7.10;46.80;;;;;;4950201;28;20039;-82
2023/02/21 13:09:34;;;;;;;17.95;10.45;;;7.00;46.60;;;;;;4958153;28;20126;-81
2023/02/21 13:12:18;;;;;;;15.73;10.02;;;7.10;46.60;;;;;;4950862;28;20086;-82
2023/02/21 13:14:44;;;;;;;16.55;10.15;;;7.00;46.50;;;;;;4958678;28;20049;-81
2023/02/21 13:17:13;;;;;;;16.35;9.68;;;7.00;46.50;;;;;;4957475;28;20039;-82
2023/02/21 13:19:51;;;;;;;15.93;9.85;;;7.00;46.50;;;;;;4957324;28;20059;-82
2023/02/21 13:26:05;;;;;;;17.52;10.20;;;7.00;46.70;;;;;;4940925;28;21253;-82
2023/02/21 13:28:35;;;;;;;15.40;9.85;;;7.00;46.70;;;;;;4937620;28;20506;-79
2023/02/21 13:31:09;;;;;;;17.13;10.15;;;6.90;46.60;;;;;;4936937;28;20706;-81
2023/02/21 13:33:37;;;;;;;15.93;9.45;;;6.90;46.60;;;;;;4939502;28;20050;-80
2023/02/21 13:36:16;;;;;;;14.23;9.20;;;6.90;46.70;;;;;;5010059;28;20110;-81
2023/02/21 13:38:42;;;;;;;16.10;9.35;;;6.90;46.70;;;;;;4993677;28;20047;-81
2023/02/21 13:41:15;;;;;;;17.92;9.65;;;6.90;46.70;;;;;;5011296;28;20180;-82
2023/02/21 13:43:49;;;;;;;14.90;9.45;;;6.90;46.70;;;;;;4997728;28;20449;-82
2023/02/21 13:46:30;;;;;;;15.20;9.02;;;6.90;46.60;;;;;;4997840;28;20488;-82
2023/02/21 13:49:33;;;;;;;19.60;10.52;;;6.90;46.70;;;;;;5013312;28;20402;-80
2023/02/21 13:52:18;;;;;;;17.58;9.63;;;6.80;46.70;;;;;;5001131;28;20228;-80
2023/02/21 13:55:09;;;;;;;15.20;9.30;;;6.90;46.80;;;;;;5014623;28;20062;-80
2023/02/21 13:58:04;;;;;;;15.18;9.20;;;6.80;46.70;;;;;;4997705;28;20128;-80
2023/02/21 14:00:29;;;;;;;15.48;9.15;;;6.80;46.50;;;;;;5006725;28;20413;-80
2023/02/21 14:03:05;;;;;;;15.73;8.73;;;6.80;46.50;;;;;;5000370;28;20034;-81
2023/02/21 14:05:43;;;;;;;;;;;6.80;46.50;;;;;;5012683;28;20038;-82
2023/02/21 14:08:28;;;;;;;17.48;9.38;;;6.80;46.50;;;;;;5003500;28;19921;-82
2023/02/21 14:11:05;;;;;;;14.48;9.57;;;6.70;46.40;;;;;;5009638;28;20040;-83
2023/02/21 14:13:38;;;;;;;15.23;9.18;;;6.70;46.40;;;;;;5005672;28;20262;-81
2023/02/21 14:16:07;;;;;;;14.85;9.13;;;6.70;46.50;;;;;;5003823;28;20034;-82
2023/02/21 14:18:53;;;;;;;13.90;8.77;;;6.70;46.60;;;;;;5019000;28;20048;-82
2023/02/21 14:21:29;;;;;;;13.82;8.90;;;6.70;46.50;;;;;;4982444;28;20065;-79
2023/02/21 14:24:21;;;;;;;16.85;9.50;;;6.70;46.60;;;;;;5004511;28;20121;-79
2023/02/21 14:27:00;;;;;;;15.80;9.18;;;6.60;46.70;;;;;;5002274;28;20066;-79
2023/02/21 14:29:35;;;;;;;15.80;9.15;;;6.60;46.60;;;;;;5021090;28;20030;-80
2023/02/21 14:32:01;;;;;;;14.37;9.63;;;6.60;46.50;;;;;;5015209;28;20472;-79
2023/02/21 14:34:53;;;;;;;14.90;8.80;;;6.60;46.50;;;;;;5002737;28;20192;-80
2023/02/21 14:37:39;;;;;;;15.35;9.32;;;6.60;46.50;;;;;;5002407;28;20038;-80
2023/02/21 14:40:08;;;;;;;18.00;9.95;;;6.60;46.50;;;;;;4992820;28;20542;-79
2023/02/21 14:43:09;;;;;;;15.43;9.18;;;6.50;46.40;;;;;;4976998;28;20035;-78
2023/02/21 14:46:09;;;;;;;14.43;9.27;;;6.50;46.50;;;;;;5010000;28;20034;-78
2023/02/21 14:48:49;;;;;;;16.30;9.20;;;6.50;46.60;;;;;;5011957;28;20134;-78
2023/02/21 14:51:34;;;;;;;16.70;9.90;;;6.50;46.70;;;;;;4997237;28;20058;-78
2023/02/21 14:54:24;;;;;;;17.23;10.13;;;6.50;46.70;;;;;;4997587;28;20031;-79
2023/02/21 14:57:21;;;;;;;15.35;9.50;;;6.40;46.80;;;;;;4997162;28;20056;-78
2023/02/21 14:59:57;;;;;;;;;;;6.40;46.90;;;;;;4996236;28;20552;-76
2023/02/21 15:02:29;;;;;;;17.67;9.93;;;6.40;46.80;;;;;;5012882;28;20327;-77
2023/02/21 15:05:16;;;;;;;19.08;10.05;;;6.40;47.10;;;;;;5012564;28;20029;-77
2023/02/21 15:07:47;;;;;;;16.70;10.10;;;6.40;47.40;;;;;;4995553;28;20092;-77
2023/02/21 15:10:16;;;;;;;16.40;9.80;;;6.40;47.80;;;;;;5009062;28;20409;-76
2023/02/21 15:12:49;;;;;;;15.52;9.65;;;6.40;48.40;;;;;;4994977;28;20046;-77
2023/02/21 15:15:29;;;;;;;16.13;9.60;;;6.40;48.60;;;;;;4996638;28;20377;-77
2023/02/21 15:18:08;;;;;;;15.05;9.88;;;6.40;48.70;;;;;;5009694;28;20030;-78
2023/02/21 15:20:40;;;;;;;16.83;9.27;;;6.40;48.90;;;;;;5008164;28;21529;-79
2023/02/21 15:23:09;;;;;;;15.43;9.80;;;6.40;48.70;;;;;;4994935;28;20053;-77
2023/02/21 15:25:35;;;;;;;15.50;9.73;;;6.50;48.90;;;;;;4994584;28;20045;-76
2023/02/21 15:28:04;;;;;;;16.58;10.45;;;6.50;49.00;;;;;;4995851;28;20048;-76